createdAt,value
2022-07-26T00:00:13.434Z,17.30
2022-07-26T00:02:48.368Z,17.40
2022-07-26T00:05:17.114Z,17.40
2022-07-26T00:07:44.820Z,17.40
2022-07-26T00:10:11.765Z,17.40
2022-07-26T00:12:38.685Z,17.40
2022-07-26T00:15:08.012Z,17.40
2022-07-26T00:17:34.724Z,17.40
2022-07-26T00:20:02.237Z,17.50
2022-07-26T00:22:34.722Z,17.50
2022-07-26T00:25:04.682Z,17.50
2022-07-26T00:27:32.838Z,17.50
2022-07-26T00:29:59.621Z,17.50
2022-07-26T00:32:26.365Z,17.50
2022-07-26T00:34:53.216Z,17.50
2022-07-26T00:37:21.021Z,17.50
2022-07-26T00:39:48.572Z,17.50
2022-07-26T00:42:15.391Z,17.50
2022-07-26T00:44:44.045Z,17.60
2022-07-26T00:47:12.091Z,17.60
2022-07-26T00:49:38.870Z,17.60
2022-07-26T00:52:06.157Z,17.70
2022-07-26T00:54:33.127Z,17.80
2022-07-26T00:57:00.078Z,17.80
2022-07-26T00:59:26.725Z,17.80
2022-07-26T01:01:53.712Z,17.80
2022-07-26T01:04:20.808Z,17.80
2022-07-26T01:06:49.280Z,17.80
2022-07-26T01:09:17.119Z,17.80
2022-07-26T01:11:43.860Z,17.80
2022-07-26T01:14:11.087Z,17.90
2022-07-26T01:16:38.143Z,18.00
2022-07-26T01:19:04.973Z,18.10
2022-07-26T01:21:33.104Z,18.10
2022-07-26T01:23:59.854Z,18.20
2022-07-26T01:26:26.589Z,18.20
2022-07-26T01:28:54.666Z,18.20
2022-07-26T01:31:21.820Z,18.30
2022-07-26T01:33:49.204Z,18.30
2022-07-26T01:36:16.242Z,18.30
2022-07-26T01:38:43.498Z,18.40
2022-07-26T01:41:10.808Z,18.40
2022-07-26T01:43:37.581Z,18.40
2022-07-26T01:46:06.067Z,18.50
2022-07-26T01:48:33.476Z,18.50
2022-07-26T01:51:00.806Z,18.50
2022-07-26T01:53:27.754Z,18.50
2022-07-26T01:55:54.514Z,18.40
2022-07-26T01:58:21.791Z,18.50
2022-07-26T02:00:48.808Z,18.50
2022-07-26T02:03:15.670Z,18.40
2022-07-26T02:05:42.455Z,18.40
2022-07-26T02:08:09.660Z,18.40
2022-07-26T02:10:56.665Z,18.30
2022-07-26T02:13:23.847Z,18.30
2022-07-26T02:15:50.631Z,18.30
2022-07-26T02:18:17.556Z,18.30
2022-07-26T02:20:44.580Z,18.30
2022-07-26T02:23:12.124Z,18.30
2022-07-26T02:25:38.923Z,18.30
2022-07-26T02:28:06.134Z,18.30
2022-07-26T02:30:32.931Z,18.30
2022-07-26T02:33:00.491Z,18.30
2022-07-26T02:35:27.372Z,18.20
2022-07-26T02:37:54.059Z,18.20
2022-07-26T02:40:20.774Z,18.10
2022-07-26T02:42:47.544Z,18.10
2022-07-26T02:45:14.328Z,18.10
2022-07-26T02:47:48.950Z,18.10
2022-07-26T02:50:20.382Z,18.10
2022-07-26T02:52:48.354Z,18.10
2022-07-26T02:55:16.630Z,18.10
2022-07-26T02:57:46.339Z,18.10
2022-07-26T03:00:16.207Z,18.10
2022-07-26T03:02:43.054Z,18.10
2022-07-26T03:05:10.325Z,18.10
2022-07-26T03:07:37.100Z,18.10
2022-07-26T03:10:04.658Z,18.10
2022-07-26T03:12:31.581Z,18.00
2022-07-26T03:14:58.362Z,18.00
2022-07-26T03:17:25.127Z,18.00
2022-07-26T03:19:51.822Z,17.90
2022-07-26T03:22:18.862Z,17.90
2022-07-26T03:24:45.492Z,17.80
2022-07-26T03:27:12.222Z,17.80
2022-07-26T03:29:38.994Z,17.80
2022-07-26T03:32:06.043Z,17.70
2022-07-26T03:34:33.143Z,17.70
2022-07-26T03:36:59.877Z,17.70
2022-07-26T03:39:26.626Z,17.70
2022-07-26T03:41:53.365Z,17.70
2022-07-26T03:44:20.072Z,17.70
2022-07-26T03:46:46.816Z,17.70
2022-07-26T03:49:16.910Z,17.80
2022-07-26T03:51:44.241Z,17.80
2022-07-26T03:54:11.564Z,17.80
2022-07-26T03:56:39.272Z,17.80
2022-07-26T03:59:08.715Z,17.80
2022-07-26T04:01:37.138Z,17.80
2022-07-26T04:04:04.391Z,17.80
2022-07-26T04:06:31.601Z,17.90
2022-07-26T04:08:58.431Z,17.90
2022-07-26T04:11:26.442Z,17.90
2022-07-26T04:13:55.059Z,17.90
2022-07-26T04:16:22.235Z,17.90
2022-07-26T04:18:49.120Z,17.90
2022-07-26T04:21:16.114Z,17.90
2022-07-26T04:23:45.348Z,17.90
2022-07-26T04:26:14.601Z,18.00
2022-07-26T04:28:42.006Z,18.00
2022-07-26T04:31:09.660Z,18.00
2022-07-26T04:33:36.350Z,18.00
2022-07-26T04:36:03.621Z,18.00
2022-07-26T04:38:30.425Z,18.00
2022-07-26T04:40:57.977Z,17.90
2022-07-26T04:43:25.403Z,17.90
2022-07-26T04:45:52.477Z,17.90
2022-07-26T04:48:19.264Z,17.90
2022-07-26T04:50:46.349Z,17.90
2022-07-26T04:53:13.603Z,17.80
2022-07-26T04:55:41.324Z,17.90
2022-07-26T04:58:09.377Z,17.90
2022-07-26T05:00:56.483Z,17.90
2022-07-26T05:03:25.170Z,17.90
2022-07-26T05:05:52.697Z,18.00
2022-07-26T05:08:19.827Z,18.00
2022-07-26T05:10:53.007Z,18.00
2022-07-26T05:13:29.451Z,18.10
2022-07-26T05:15:58.258Z,18.10
2022-07-26T05:18:25.407Z,18.20
2022-07-26T05:20:52.918Z,18.30
2022-07-26T05:23:20.448Z,18.40
2022-07-26T05:25:47.389Z,18.50
2022-07-26T05:28:14.192Z,18.60
2022-07-26T05:30:40.967Z,18.80
2022-07-26T05:33:07.959Z,18.80
2022-07-26T05:35:34.765Z,19.00
2022-07-26T05:38:01.518Z,19.10
2022-07-26T05:40:28.281Z,19.30
2022-07-26T05:42:54.961Z,19.30
2022-07-26T05:45:21.762Z,19.40
2022-07-26T05:47:52.260Z,19.60
2022-07-26T05:50:19.744Z,19.80
2022-07-26T05:52:46.648Z,20.00
2022-07-26T05:55:14.276Z,20.10
2022-07-26T05:57:47.352Z,20.20
2022-07-26T06:00:16.909Z,20.20
2022-07-26T06:02:43.760Z,20.20
2022-07-26T06:05:10.775Z,20.20
2022-07-26T06:07:37.905Z,20.20
2022-07-26T06:10:05.262Z,20.20
2022-07-26T06:12:32.034Z,20.10
2022-07-26T06:14:58.755Z,20.10
2022-07-26T06:17:29.916Z,20.10
2022-07-26T06:19:57.701Z,20.10
2022-07-26T06:22:24.404Z,20.10
2022-07-26T06:24:51.145Z,20.10
2022-07-26T06:27:17.880Z,20.20
2022-07-26T06:29:44.585Z,20.30
2022-07-26T06:32:11.403Z,20.50
2022-07-26T06:34:38.391Z,20.50
2022-07-26T06:37:06.312Z,20.40
2022-07-26T06:39:33.554Z,20.50
2022-07-26T06:42:01.250Z,20.60
2022-07-26T06:44:29.050Z,20.70
2022-07-26T06:46:55.886Z,20.80
2022-07-26T06:49:24.051Z,20.80
2022-07-26T06:51:51.105Z,20.70
2022-07-26T06:54:25.193Z,20.60
2022-07-26T06:56:53.381Z,20.60
2022-07-26T06:59:21.489Z,20.60
2022-07-26T07:01:57.602Z,20.50
2022-07-26T07:04:29.420Z,20.40
2022-07-26T07:07:05.920Z,20.40
2022-07-26T07:09:34.273Z,20.30
2022-07-26T07:12:08.790Z,20.20
2022-07-26T07:14:37.751Z,20.20
2022-07-26T07:17:10.779Z,20.10
2022-07-26T07:19:42.088Z,20.10
2022-07-26T07:22:12.285Z,19.90
2022-07-26T07:24:40.232Z,19.90
2022-07-26T07:27:08.070Z,19.90
2022-07-26T07:29:35.592Z,19.70
2022-07-26T07:32:03.331Z,19.70
2022-07-26T07:34:30.704Z,19.60
2022-07-26T07:36:57.788Z,19.60
2022-07-26T07:39:27.148Z,19.50
2022-07-26T07:42:01.698Z,19.40
2022-07-26T07:44:29.047Z,19.30
2022-07-26T07:46:56.624Z,19.30
2022-07-26T07:49:25.137Z,19.30
2022-07-26T07:51:52.767Z,19.20
2022-07-26T07:54:26.577Z,19.20
2022-07-26T07:56:56.467Z,19.20
2022-07-26T07:59:24.772Z,19.20
2022-07-26T08:01:52.263Z,19.20
2022-07-26T08:04:20.214Z,19.20
2022-07-26T08:06:50.992Z,19.10
2022-07-26T08:09:20.514Z,19.10
2022-07-26T08:11:50.450Z,19.00
2022-07-26T08:14:21.677Z,19.00
2022-07-26T08:16:48.706Z,19.00
2022-07-26T08:19:17.609Z,19.00
2022-07-26T08:21:46.808Z,19.10
2022-07-26T08:24:15.075Z,19.10
2022-07-26T08:26:41.893Z,19.10
2022-07-26T08:29:09.560Z,19.00
2022-07-26T08:31:37.379Z,18.90
2022-07-26T08:34:04.171Z,18.80
2022-07-26T08:36:32.930Z,18.90
2022-07-26T08:39:01.114Z,18.90
2022-07-26T08:41:28.581Z,19.00
2022-07-26T08:44:04.258Z,19.00
2022-07-26T08:46:34.304Z,19.00
2022-07-26T08:49:01.074Z,19.00
2022-07-26T08:51:28.045Z,19.00
2022-07-26T08:54:04.204Z,19.10
2022-07-26T08:56:36.954Z,19.10
2022-07-26T08:59:20.133Z,19.10
2022-07-26T09:02:02.394Z,19.20
2022-07-26T09:04:34.056Z,19.20
2022-07-26T09:07:06.961Z,19.20
2022-07-26T09:09:36.351Z,19.20
2022-07-26T09:12:20.018Z,19.20
2022-07-26T09:14:47.921Z,19.20
2022-07-26T09:17:17.768Z,19.20
2022-07-26T09:19:45.641Z,19.30
2022-07-26T09:22:14.727Z,19.40
2022-07-26T09:24:45.078Z,19.50
2022-07-26T09:27:17.248Z,19.50
2022-07-26T09:29:45.184Z,19.60
2022-07-26T09:32:21.743Z,19.70
2022-07-26T09:34:58.722Z,19.80
2022-07-26T09:37:40.597Z,20.00
2022-07-26T09:40:10.941Z,20.00
2022-07-26T09:42:38.902Z,20.00
2022-07-26T09:45:16.598Z,20.10
2022-07-26T09:47:44.285Z,20.10
2022-07-26T09:50:17.413Z,20.20
2022-07-26T09:53:07.540Z,20.30
2022-07-26T09:55:56.130Z,20.40
2022-07-26T09:58:24.523Z,20.50
2022-07-26T10:00:58.974Z,20.60
2022-07-26T10:03:36.321Z,20.80
2022-07-26T10:06:05.692Z,20.90
2022-07-26T10:08:33.020Z,21.10
2022-07-26T10:11:06.929Z,21.10
2022-07-26T10:13:33.786Z,21.20
2022-07-26T10:16:02.515Z,21.40
2022-07-26T10:18:39.281Z,21.50
2022-07-26T10:21:27.283Z,21.80
2022-07-26T10:23:57.941Z,22.10
2022-07-26T10:26:33.848Z,22.30
2022-07-26T10:29:26.695Z,22.60
2022-07-26T10:32:02.921Z,22.80
2022-07-26T10:34:38.583Z,22.90
2022-07-26T10:37:08.643Z,22.80
2022-07-26T10:39:35.822Z,22.80
2022-07-26T10:42:07.956Z,23.00
2022-07-26T10:45:02.730Z,23.30
2022-07-26T10:47:35.130Z,23.50
2022-07-26T10:50:03.164Z,23.40
2022-07-26T10:52:32.302Z,23.30
2022-07-26T10:55:05.328Z,23.00
2022-07-26T10:57:41.409Z,23.00
2022-07-26T11:00:14.464Z,23.00
2022-07-26T11:02:44.261Z,22.90
2022-07-26T11:05:17.663Z,23.00
2022-07-26T11:07:59.633Z,23.50
2022-07-26T11:10:44.694Z,23.60
2022-07-26T11:13:18.293Z,23.60
2022-07-26T11:15:59.244Z,23.50
2022-07-26T11:18:30.687Z,23.50
2022-07-26T11:21:08.896Z,23.40
2022-07-26T11:23:36.624Z,23.30
2022-07-26T11:26:09.382Z,23.30
2022-07-26T11:28:59.265Z,23.30
2022-07-26T11:31:51.094Z,23.10
2022-07-26T11:34:29.523Z,23.00
2022-07-26T11:36:58.316Z,22.70
2022-07-26T11:39:28.506Z,22.50
2022-07-26T11:41:59.506Z,22.60
2022-07-26T11:44:27.339Z,22.70
2022-07-26T11:46:54.873Z,22.80
2022-07-26T11:50:00.262Z,22.80
2022-07-26T11:52:25.158Z,22.80
2022-07-26T11:54:54.481Z,22.80
2022-07-26T11:57:22.378Z,22.80
2022-07-26T11:59:51.071Z,22.80
2022-07-26T12:02:21.405Z,23.00
2022-07-26T12:04:48.319Z,23.40
2022-07-26T12:07:21.662Z,23.50
2022-07-26T12:09:53.054Z,23.40
2022-07-26T12:12:28.857Z,23.30
2022-07-26T12:14:57.468Z,23.40
2022-07-26T12:17:24.999Z,23.40
2022-07-26T12:19:52.124Z,23.70
2022-07-26T12:22:21.327Z,23.90
2022-07-26T12:24:58.220Z,23.90
2022-07-26T12:27:28.230Z,23.40
2022-07-26T12:30:01.044Z,22.70
2022-07-26T12:32:34.946Z,22.40
2022-07-26T12:35:07.441Z,22.00
2022-07-26T12:37:47.997Z,21.70
2022-07-26T12:40:20.260Z,21.40
2022-07-26T12:42:50.087Z,21.10
2022-07-26T12:45:31.075Z,20.80
2022-07-26T12:48:00.321Z,20.70
2022-07-26T12:50:28.836Z,20.60
2022-07-26T12:53:04.675Z,20.50
2022-07-26T12:55:32.024Z,20.50
2022-07-26T12:57:59.447Z,20.60
2022-07-26T13:00:26.843Z,20.50
2022-07-26T13:02:56.528Z,20.40
2022-07-26T13:05:23.371Z,20.50
2022-07-26T13:07:51.639Z,20.60
2022-07-26T13:10:35.382Z,20.70
2022-07-26T13:13:02.591Z,20.80
2022-07-26T13:15:37.180Z,20.90
2022-07-26T13:18:09.063Z,21.10
2022-07-26T13:20:39.801Z,21.20
2022-07-26T13:23:11.608Z,21.20
2022-07-26T13:25:40.922Z,21.20
2022-07-26T13:28:08.250Z,21.30
2022-07-26T13:30:38.335Z,21.30
2022-07-26T13:33:05.354Z,21.30
2022-07-26T13:35:32.150Z,21.30
2022-07-26T13:37:58.866Z,21.30
2022-07-26T13:40:31.042Z,21.30
2022-07-26T13:42:58.492Z,21.40
2022-07-26T13:45:29.066Z,21.50
2022-07-26T13:47:57.635Z,21.60
2022-07-26T13:50:26.914Z,21.70
2022-07-26T13:52:56.343Z,21.80
2022-07-26T13:55:23.807Z,22.20
2022-07-26T13:57:56.718Z,22.70
2022-07-26T14:00:25.634Z,22.90
2022-07-26T14:02:52.677Z,22.90
2022-07-26T14:05:20.467Z,22.90
2022-07-26T14:07:47.236Z,22.60
2022-07-26T14:10:14.065Z,22.50
2022-07-26T14:12:41.136Z,22.30
2022-07-26T14:15:16.603Z,22.20
2022-07-26T14:17:47.239Z,22.20
2022-07-26T14:20:16.815Z,22.20
2022-07-26T14:22:43.836Z,22.20
2022-07-26T14:25:10.770Z,22.30
2022-07-26T14:27:37.597Z,22.40
2022-07-26T14:30:06.526Z,22.70
2022-07-26T14:32:33.649Z,22.70
2022-07-26T14:35:04.678Z,22.70
2022-07-26T14:37:42.678Z,22.50
2022-07-26T14:40:14.042Z,22.40
2022-07-26T14:42:42.160Z,22.50
2022-07-26T14:45:11.170Z,22.50
2022-07-26T14:47:41.618Z,22.50
2022-07-26T14:50:10.525Z,22.50
2022-07-26T14:52:42.467Z,22.50
2022-07-26T14:55:10.605Z,22.80
2022-07-26T14:57:39.886Z,22.80
2022-07-26T15:00:10.132Z,22.80
2022-07-26T15:02:48.748Z,22.70
2022-07-26T15:05:17.744Z,22.40
2022-07-26T15:07:51.229Z,22.30
2022-07-26T15:10:18.360Z,22.20
2022-07-26T15:12:45.231Z,22.00
2022-07-26T15:15:12.106Z,22.00
2022-07-26T15:17:38.820Z,22.00
2022-07-26T15:20:06.780Z,22.00
2022-07-26T15:22:34.899Z,22.00
2022-07-26T15:25:02.351Z,22.00
2022-07-26T15:27:30.115Z,22.20
2022-07-26T15:30:02.859Z,22.50
2022-07-26T15:32:31.618Z,22.50
2022-07-26T15:34:58.393Z,22.40
2022-07-26T15:37:25.097Z,22.40
2022-07-26T15:39:52.011Z,22.30
2022-07-26T15:42:18.962Z,22.20
2022-07-26T15:44:47.674Z,22.20
2022-07-26T15:47:22.025Z,22.10
2022-07-26T15:49:57.604Z,21.80
2022-07-26T15:52:24.368Z,21.70
2022-07-26T15:54:52.798Z,21.60
2022-07-26T15:57:19.543Z,21.90
2022-07-26T15:59:46.270Z,22.10
2022-07-26T16:02:13.698Z,22.20
2022-07-26T16:04:40.539Z,22.20
2022-07-26T16:07:07.205Z,22.20
2022-07-26T16:09:33.919Z,22.10
2022-07-26T16:12:05.796Z,21.90
2022-07-26T16:14:32.964Z,21.80
2022-07-26T16:16:59.740Z,21.80
2022-07-26T16:19:26.619Z,21.80
2022-07-26T16:21:53.415Z,21.70
2022-07-26T16:24:20.425Z,21.70
2022-07-26T16:26:47.540Z,21.90
2022-07-26T16:29:14.897Z,22.00
2022-07-26T16:31:42.149Z,22.00
2022-07-26T16:34:09.796Z,21.80
2022-07-26T16:36:36.796Z,21.80
2022-07-26T16:39:04.579Z,21.80
2022-07-26T16:41:31.324Z,21.80
2022-07-26T16:43:58.129Z,21.90
2022-07-26T16:46:25.081Z,22.00
2022-07-26T16:48:51.965Z,21.90
2022-07-26T16:51:18.760Z,22.00
2022-07-26T16:53:45.510Z,22.00
2022-07-26T16:56:12.224Z,21.90
2022-07-26T16:58:38.939Z,21.90
2022-07-26T17:01:06.492Z,21.80
2022-07-26T17:03:33.273Z,21.50
2022-07-26T17:06:06.144Z,21.30
2022-07-26T17:08:33.658Z,21.10
2022-07-26T17:11:00.355Z,21.00
2022-07-26T17:13:27.321Z,20.90
2022-07-26T17:15:54.106Z,20.90
2022-07-26T17:18:21.003Z,20.80
2022-07-26T17:20:47.718Z,20.80
2022-07-26T17:23:14.514Z,20.70
2022-07-26T17:25:41.212Z,20.60
2022-07-26T17:28:08.071Z,20.50
2022-07-26T17:30:34.791Z,20.50
2022-07-26T17:33:01.756Z,20.40
2022-07-26T17:35:28.543Z,20.40
2022-07-26T17:37:55.990Z,20.30
2022-07-26T17:40:25.756Z,20.30
2022-07-26T17:42:52.729Z,20.20
2022-07-26T17:45:19.471Z,20.00
2022-07-26T17:47:46.899Z,19.90
2022-07-26T17:50:35.475Z,19.80
2022-07-26T17:53:00.476Z,19.70
2022-07-26T17:55:27.254Z,19.70
2022-07-26T17:57:54.129Z,19.60
2022-07-26T18:00:22.557Z,19.60
2022-07-26T18:02:49.663Z,19.60
2022-07-26T18:05:18.309Z,19.50
2022-07-26T18:07:45.355Z,19.50
2022-07-26T18:10:14.415Z,19.40
2022-07-26T18:12:41.761Z,19.40
2022-07-26T18:15:09.244Z,19.40
2022-07-26T18:17:36.525Z,19.30
2022-07-26T18:20:04.187Z,19.20
2022-07-26T18:22:30.936Z,19.10
2022-07-26T18:24:57.779Z,19.10
2022-07-26T18:27:27.921Z,19.00
2022-07-26T18:29:55.430Z,18.90
2022-07-26T18:32:22.706Z,18.90
2022-07-26T18:34:52.060Z,18.80
2022-07-26T18:37:20.535Z,18.70
2022-07-26T18:39:47.753Z,18.70
2022-07-26T18:42:14.705Z,18.70
2022-07-26T18:44:41.790Z,18.60
2022-07-26T18:47:09.696Z,18.50
2022-07-26T18:49:36.597Z,18.50
2022-07-26T18:52:08.203Z,18.40
2022-07-26T18:54:36.462Z,18.40
2022-07-26T18:57:03.431Z,18.30
2022-07-26T18:59:31.085Z,18.30
2022-07-26T19:01:59.774Z,18.30
2022-07-26T19:04:27.227Z,18.20
2022-07-26T19:06:54.466Z,18.20
2022-07-26T19:09:21.196Z,18.10
2022-07-26T19:11:47.984Z,18.00
2022-07-26T19:14:14.777Z,18.00
2022-07-26T19:16:41.480Z,18.00
2022-07-26T19:19:08.203Z,18.00
2022-07-26T19:21:35.927Z,17.90
2022-07-26T19:24:02.680Z,17.80
2022-07-26T19:26:29.970Z,17.80
2022-07-26T19:28:57.149Z,17.70
2022-07-26T19:31:24.032Z,17.70
2022-07-26T19:33:50.882Z,17.70
2022-07-26T19:36:26.155Z,17.60
2022-07-26T19:38:54.298Z,17.60
2022-07-26T19:41:21.063Z,17.60
2022-07-26T19:43:47.795Z,17.60
2022-07-26T19:46:14.686Z,17.60
2022-07-26T19:48:41.564Z,17.50
2022-07-26T19:51:08.559Z,17.50
2022-07-26T19:53:35.275Z,17.50
2022-07-26T19:56:01.997Z,17.50
2022-07-26T19:58:30.570Z,17.50
2022-07-26T20:00:57.392Z,17.50
2022-07-26T20:03:24.169Z,17.60
2022-07-26T20:05:50.879Z,17.50
2022-07-26T20:08:17.595Z,17.50
2022-07-26T20:10:44.303Z,17.50
2022-07-26T20:13:11.021Z,17.40
2022-07-26T20:15:37.684Z,17.40
2022-07-26T20:18:04.677Z,17.40
2022-07-26T20:20:31.517Z,17.40
2022-07-26T20:22:58.359Z,17.40
2022-07-26T20:25:25.226Z,17.40
2022-07-26T20:27:52.883Z,17.40
2022-07-26T20:30:19.788Z,17.30
2022-07-26T20:32:46.541Z,17.40
2022-07-26T20:35:13.284Z,17.30
2022-07-26T20:37:41.670Z,17.30
2022-07-26T20:40:09.303Z,17.30
2022-07-26T20:42:36.623Z,17.30
2022-07-26T20:45:11.434Z,17.30
2022-07-26T20:47:43.040Z,17.20
2022-07-26T20:50:11.764Z,17.20
2022-07-26T20:52:38.967Z,17.20
2022-07-26T20:55:06.336Z,17.20
2022-07-26T20:57:33.170Z,17.20
2022-07-26T20:59:59.982Z,17.20
2022-07-26T21:02:27.199Z,17.20
2022-07-26T21:04:54.202Z,17.10
2022-07-26T21:07:20.949Z,17.20
2022-07-26T21:09:47.627Z,17.10
2022-07-26T21:12:14.387Z,17.10
2022-07-26T21:14:41.165Z,17.10
2022-07-26T21:17:11.613Z,17.10
2022-07-26T21:19:39.352Z,17.00
2022-07-26T21:22:06.553Z,17.00
2022-07-26T21:24:34.956Z,17.00
2022-07-26T21:27:02.979Z,16.90
2022-07-26T21:29:29.932Z,16.90
2022-07-26T21:31:56.997Z,16.90
2022-07-26T21:34:25.471Z,16.90
2022-07-26T21:36:52.930Z,16.80
2022-07-26T21:39:20.501Z,16.80
2022-07-26T21:41:47.514Z,16.80
2022-07-26T21:44:14.490Z,16.70
2022-07-26T21:46:41.232Z,16.70
2022-07-26T21:49:08.393Z,16.60
2022-07-26T21:51:35.323Z,16.60
2022-07-26T21:54:02.021Z,16.50
2022-07-26T21:56:28.739Z,16.50
2022-07-26T21:58:55.590Z,16.50
2022-07-26T22:01:22.480Z,16.50
2022-07-26T22:03:49.221Z,16.40
2022-07-26T22:06:16.831Z,16.40
2022-07-26T22:08:43.690Z,16.30
2022-07-26T22:11:10.800Z,16.30
2022-07-26T22:13:38.512Z,16.20
2022-07-26T22:16:06.654Z,16.20
2022-07-26T22:18:33.435Z,16.20
2022-07-26T22:21:00.996Z,16.20
2022-07-26T22:23:30.024Z,16.10
2022-07-26T22:25:59.125Z,16.20
2022-07-26T22:28:26.181Z,16.20
2022-07-26T22:30:53.007Z,16.20
2022-07-26T22:33:20.156Z,16.20
2022-07-26T22:35:47.416Z,16.20
2022-07-26T22:38:14.537Z,16.30
2022-07-26T22:40:42.556Z,16.30
2022-07-26T22:43:10.971Z,16.30
2022-07-26T22:45:39.516Z,16.30
2022-07-26T22:48:07.975Z,16.20
2022-07-26T22:50:34.822Z,16.30
2022-07-26T22:53:01.817Z,16.20
2022-07-26T22:55:30.373Z,16.20
2022-07-26T22:57:57.354Z,16.20
2022-07-26T23:00:24.243Z,16.20
2022-07-26T23:02:51.115Z,16.10
2022-07-26T23:05:17.957Z,16.10
2022-07-26T23:07:48.025Z,16.20
2022-07-26T23:10:16.260Z,16.10
2022-07-26T23:12:43.027Z,16.10
2022-07-26T23:15:10.761Z,16.00
2022-07-26T23:17:37.856Z,16.00
2022-07-26T23:20:06.829Z,16.00
2022-07-26T23:22:34.292Z,16.00
2022-07-26T23:25:01.270Z,16.00
2022-07-26T23:27:28.009Z,16.00
2022-07-26T23:29:55.429Z,16.00
2022-07-26T23:32:22.274Z,16.00
2022-07-26T23:34:48.988Z,16.00
2022-07-26T23:37:15.667Z,16.00
2022-07-26T23:39:42.414Z,16.00
2022-07-26T23:42:09.153Z,16.00
2022-07-26T23:44:36.086Z,16.00
2022-07-26T23:47:02.885Z,16.00
2022-07-26T23:49:29.768Z,16.00
2022-07-26T23:51:56.605Z,16.00
2022-07-26T23:54:23.290Z,16.00
2022-07-26T23:56:50.038Z,16.00
2022-07-26T23:59:16.882Z,16.00
